Main page
METAR-TAF:

METAR-TAF

Airports :

Guilin Liangjiang International Airport

Guilin, China

latitude: 25-20N, longitude: 110-18E, elevation: 166 m

Current weather observation

The report was made 46 minutes ago, at 12:00 UTC
Wind 4 kt from variable directions
Temperature 19°C
Humidity 83%
Pressure 1017 hPa
Visibility: 8000 m
Broken clouds at a height of 3300 ft
Overcast at a height of 6600 ft

METAR: ZGKL 181200Z VRB02MPS 8000 BKN033 OVC066 19/16 Q1017 NOSIG

Time: 20:46 (12:46 UTC)

Forecast

The report was made 5 hours and 41 minutes ago, at 07:05 UTC
Forecast valid from 18 at 12 UTC to 19 at 12 UTC
Wind 8 kt from the Northeast
Visibility: 8000 m
Scattered clouds at a height of 3000 ft
Overcast at a height of 5000 ft

TAF: ZGKL 180705Z 1812/1912 05004MPS 8000 SCT030 OVC050 TX22/1907Z TN16/1822Z

Weather observations and forecasts of more than 4000 airports (METAR and TAF reports).

The available stations are represented by yellow and red dots on the map.

Hover mouse over dot to see the name of the station.

Then click to see weather observations and forecasts.

To change the map : click on the green buttons with a black cross to zoom in, on the green button with a dash to zoom out, or on the green arrows for adjacent maps.


METAR-TAF: